INFORMAÇÕES DO AERODROMO
Icao Aerodromo SBST Nome do Aerodromo Base Aérea de Santos Airport Cidade Guarujá
Código GPS SBST Elevação Média 10 ft Tipo de Aerodromo Aeroporto Médio Porte

INFORMAÇÃO DE PISTA
Pista 17 Comprimento da Pista 4560 ft Largura da Pista 148 ft
Elevação da Pista 0 ft Distância de Area de Escape da Pista 0 ft Orientação da Pista 0
Pista 35 Comprimento da Pista 4560 ft Largura da Pista 148 ft
Elevação da Pista 0 ft Distância de Area de Escape da Pista 0 ft Orientação da Pista 0

FREQUÊNCIAS DO AERODROMO
Tipo APP Nome SAO PAULO Frequência 119.8 MHZ
Tipo TWR Nome TWR Frequência 118.3 MHZ

INFORMAÇÕES DE NAVEGAÇÃO PRÓXIMO AO AERODROMO
Tipo NDB Nome Vicente Frequência 360 KHZ
Tipo NDB Nome Santos Frequência 375 KHZ

Informações de Meteorologia(METAR atual)
METAR DE SBST
ADDS - METARS form results

(1831 UTC 22 June 2018)
Data provider http://aviationweather.gov/adds/metars/
 
METAR text: SBST 221800Z 24006KT 210V280 7000 FEW035 22/19 Q1018
Conditions at: SBST (SANTOS (BRAZ-AFB, BR) observed 1800 UTC 22 June 2018
Temperature: 22.0°C (72°F)
Dewpoint: 19.0°C (66°F) [RH = 83%]
Pressure (altimeter): 30.06 inches Hg (1018.0 mb)
Winds: from the WSW (240 degrees) at 7 MPH (6 knots; 3.1 m/s)
Visibility: 4 miles (7 km)
Ceiling: at least 12,000 feet AGL
Clouds: few clouds at 3500 feet AGL
Weather: no significant weather observed at this time

MAPA DO AERODROMO


Desenvolvido por Virtual Airlines Manager




Modificado por Servidor Brasil Amigos